Latest Coastal Weather Observations for Burnie Port

IDT60701

Issued at 3:03 pm EDT Friday 24 February 2017 (issued every 10 minutes, with the page automatically refreshed every 10 minutes)

About coastal observations | Map of coastal stations | Coastal observations for TAS | Marine services | Other Formats
Station Details ID: 091344 Name: BURNIE NTC AWS Lat: -41.05 Lon: 145.91 Height: 0.0 m
Data from the previous 72 hours. | See also: Recent months for locations in Tasmania
Date/Time
EDT
Temp
°C
Wind Pressure Rain since
9am
mm
Weather Cloud Vis
km
Sea
Height
m
Swell
Dir  Spd
kts
Gust
kts
hPa Trend Height
m
Period
s
Dir
24/03:00pm - WSW 12 - 1021.1 - - - - - - - - -
24/02:49pm - SW 14 25 1021.3 - - - - - - - - -
24/02:30pm - WSW 11 24 1021.1 - - - - - - - - -
24/02:00pm - SW 11 18 1021.2 - - - - - - - - -
24/01:30pm - SW 11 20 1021.1 - - - - - - - - -
24/01:00pm - WSW 10 20 1021.1 - - - - - - - - -
24/12:30pm - WSW 13 20 1021.4 - - - - - - - - -
24/12:00pm - SW 12 19 1021.9 - - - - - - - - -
24/11:30am - SW 13 22 1021.9 - - - - - - - - -
24/11:00am - WSW 10 18 1022.1 - - - - - - - - -
24/10:30am - SW 13 21 1022.2 - - - - - - - - -
24/10:00am - SW 13 23 1022.1 - - - - - - - - -
24/09:30am - SW 9 16 1021.8 - - - - - - - - -
24/09:00am - SW 13 22 1021.5 - - - - - - - - -
24/08:30am - WSW 10 19 1020.9 - - - - - - - - -
24/08:00am - WSW 8 19 1020.5 - - - - - - - - -
24/07:30am - WSW 11 18 1020.1 - - - - - - - - -
24/07:00am - SW 14 24 1019.8 - - - - - - - - -
24/06:49am - SW 16 27 1019.7 - - - - - - - - -
24/06:30am - SW 15 22 1019.5 - - - - - - - - -
24/06:00am - SW 16 27 1019.1 - - - - - - - - -
24/05:39am - WSW 16 26 1019.1 - - - - - - - - -
24/05:30am - WSW 16 25 1018.8 - - - - - - - - -
24/05:27am - SW 15 25 1018.9 - - - - - - - - -
24/05:00am - WSW 13 21 1018.8 - - - - - - - - -
24/04:30am - WSW 13 20 1018.8 - - - - - - - - -
24/04:00am - SW 7 16 1018.8 - - - - - - - - -
24/03:30am - W 7 14 1018.8 - - - - - - - - -
24/03:00am - W 8 11 1019.1 - - - - - - - - -
24/02:30am - WNW 7 10 1019.0 - - - - - - - - -
24/02:00am - WNW 6 10 1019.2 - - - - - - - - -
24/01:30am - W 8 12 1019.7 - - - - - - - - -
24/01:00am - W 7 12 1019.8 - - - - - - - - -
24/12:30am - W 8 14 1019.8 - - - - - - - - -
24/12:00am - W 7 12 1019.8 - - - - - - - - -
 
Date/Time
EDT
Temp
°C
Wind Pressure Rain since
9am
mm
Weather Cloud Vis
km
Sea
Height
m
Swell
Dir  Spd
kts
Gust
kts
hPa Trend Height
m
Period
s
Dir
23/11:30pm - WNW 7 12 1019.7 - - - - - - - - -
23/11:00pm - W 6 12 1019.6 - - - - - - - - -
23/10:30pm - W 7 13 1019.3 - - - - - - - - -
23/10:00pm - W 5 8 1019.1 - - - - - - - - -
23/09:30pm - W 5 9 1018.8 - - - - - - - - -
23/09:00pm - WSW 5 11 1018.1 - - - - - - - - -
23/08:30pm - W 6 10 1017.7 - - - - - - - - -
23/08:00pm - WSW 7 14 1016.9 - - - - - - - - -
23/07:30pm - W 8 15 1016.3 - - - - - - - - -
23/07:00pm - W 12 17 1015.7 - - - - - - - - -
23/06:30pm - W 9 17 1015.3 - - - - - - - - -
23/06:00pm - WNW 8 16 1014.8 - - - - - - - - -
23/05:30pm - WNW 9 15 1014.5 - - - - - - - - -
23/05:00pm - W 9 14 1014.3 - - - - - - - - -
23/04:30pm - W 10 17 1014.1 - - - - - - - - -
23/04:00pm - W 10 17 1014.0 - - - - - - - - -
23/03:30pm - NW 11 17 1013.8 - - - - - - - - -
23/03:00pm - W 10 17 1013.9 - - - - - - - - -
23/02:30pm - W 8 14 1013.7 - - - - - - - - -
23/02:00pm - NW 14 20 1013.9 - - - - - - - - -
23/01:30pm - NW 14 20 1014.0 - - - - - - - - -
23/01:00pm - NW 12 15 1014.0 - - - - - - - - -
23/12:30pm - NW 13 19 1013.9 - - - - - - - - -
23/12:00pm - NNW 18 21 1013.7 - - - - - - - - -
23/11:30am - NNW 14 18 1013.5 - - - - - - - - -
23/11:00am - NNW 14 17 1013.4 - - - - - - - - -
23/10:30am - NW 10 13 1013.4 - - - - - - - - -
23/10:00am - WNW 10 17 1013.1 - - - - - - - - -
23/09:30am - WNW 10 16 1012.6 - - - - - - - - -
23/09:00am - NW 15 18 1012.3 - - - - - - - - -
23/08:30am - NW 11 14 1012.0 - - - - - - - - -
23/08:00am - NW 9 11 1011.5 - - - - - - - - -
23/07:30am - WNW 7 11 1011.2 - - - - - - - - -
23/07:00am - WNW 6 10 1010.8 - - - - - - - - -
23/06:30am - WNW 7 12 1010.2 - - - - - - - - -
23/06:00am - WNW 6 10 1009.8 - - - - - - - - -
23/05:30am - WNW 5 8 1009.5 - - - - - - - - -
23/05:00am - NW 6 7 1009.3 - - - - - - - - -
23/04:30am - WNW 5 8 1008.9 - - - - - - - - -
23/04:00am - WNW 5 9 1008.9 - - - - - - - - -
23/03:30am - WNW 3 5 1008.7 - - - - - - - - -
23/03:00am - ESE 2 3 1008.5 - - - - - - - - -
23/02:30am - ESE 10 13 1008.2 - - - - - - - - -
23/02:00am - ESE 10 12 1008.4 - - - - - - - - -
23/01:30am - ESE 12 15 1008.4 - - - - - - - - -
23/01:00am - ESE 13 20 1009.1 - - - - - - - - -
23/12:55am - ESE 12 20 1009.1 - - - - - - - - -
23/12:30am - E 4 6 1010.5 - - - - - - - - -
23/12:00am - ESE 14 17 1009.3 - - - - - - - - -
 
Date/Time
EDT
Temp
°C
Wind Pressure Rain since
9am
mm
Weather Cloud Vis
km
Sea
Height
m
Swell
Dir  Spd
kts
Gust
kts
hPa Trend Height
m
Period
s
Dir
22/11:30pm - ESE 17 21 1009.2 - - - - - - - - -
22/11:00pm - ESE 15 19 1009.4 - - - - - - - - -
22/10:30pm - ESE 14 17 1009.6 - - - - - - - - -
22/10:00pm - SE 15 20 1010.2 - - - - - - - - -
22/09:30pm - SE 16 20 1010.5 - - - - - - - - -
22/09:00pm - SE 15 18 1010.5 - - - - - - - - -
22/08:30pm - SE 13 15 1010.7 - - - - - - - - -
22/08:00pm - ESE 11 15 1010.9 - - - - - - - - -
22/07:30pm - SE 14 17 1010.6 - - - - - - - - -
22/07:00pm - SE 9 12 1011.3 - - - - - - - - -
22/06:30pm - ESE 13 16 1011.2 - - - - - - - - -
22/06:00pm - ESE 10 11 1012.3 - - - - - - - - -
22/05:30pm - ESE 11 14 1012.5 - - - - - - - - -
22/05:00pm - ESE 11 15 1012.7 - - - - - - - - -
22/04:30pm - ESE 15 19 1012.2 - - - - - - - - -
22/04:00pm - ESE 14 17 1013.1 - - - - - - - - -
22/03:30pm - ESE 12 15 1014.0 - - - - - - - - -
22/03:00pm - ESE 14 17 1014.2 - - - - - - - - -
22/02:30pm - ESE 15 17 1014.7 - - - - - - - - -
22/02:00pm - ESE 14 17 1015.3 - - - - - - - - -
22/01:30pm - ESE 13 16 1015.7 - - - - - - - - -
22/01:00pm - ESE 12 14 1016.1 - - - - - - - - -
22/12:30pm - ESE 13 16 1016.8 - - - - - - - - -
22/12:00pm - ESE 13 16 1016.8 - - - - - - - - -
22/11:30am - ESE 14 16 1016.8 - - - - - - - - -
22/11:00am - ESE 14 17 1017.1 - - - - - - - - -
22/10:30am - ESE 13 15 1017.5 - - - - - - - - -
22/10:00am - ESE 11 14 1017.7 - - - - - - - - -
22/09:30am - ESE 11 13 1017.7 - - - - - - - - -
22/09:00am - SE 10 13 1017.7 - - - - - - - - -
22/08:30am - SSE 7 8 1017.7 - - - - - - - - -
22/08:00am - S 8 10 1017.5 - - - - - - - - -
22/07:30am - S 7 7 1017.6 - - - - - - - - -
22/07:00am - S 5 7 1017.5 - - - - - - - - -
22/06:30am - S 6 7 1017.3 - - - - - - - - -
22/06:00am - S 5 6 1017.2 - - - - - - - - -
22/05:30am - SSW 5 6 1017.4 - - - - - - - - -
22/05:00am - S 5 6 1017.0 - - - - - - - - -
22/04:30am - SE 6 9 1017.3 - - - - - - - - -
22/04:00am - SSE 4 7 1017.5 - - - - - - - - -
22/03:30am - S 4 6 1017.5 - - - - - - - - -
22/03:00am - S 5 6 1017.7 - - - - - - - - -
22/02:30am - S 4 5 1017.7 - - - - - - - - -

Other Formats:

Comma delimited format used in spreadsheet applications
http://www.bom.gov.au/fwo/IDT60701/IDT60701.95963.axf

JavaScript Object Notation format (JSON) in row-major order
http://www.bom.gov.au/fwo/IDT60701/IDT60701.95963.json